createdAt,value
2022-10-03T00:00:42.338Z,3.30
2022-10-03T00:06:15.501Z,2.53
2022-10-03T00:12:10.835Z,2.33
2022-10-03T00:17:27.415Z,3.45
2022-10-03T00:22:48.231Z,3.25
2022-10-03T00:28:05.287Z,3.50
2022-10-03T00:33:36.385Z,3.00
2022-10-03T00:38:40.735Z,3.17
2022-10-03T00:44:19.899Z,3.28
2022-10-03T00:49:39.099Z,3.30
2022-10-03T00:55:11.333Z,3.35
2022-10-03T01:00:26.031Z,2.72
2022-10-03T01:05:46.539Z,3.53
2022-10-03T01:11:28.771Z,3.78
2022-10-03T01:17:05.471Z,4.30
2022-10-03T01:22:22.293Z,3.10
2022-10-03T01:28:10.359Z,3.72
2022-10-03T01:33:24.683Z,2.58
2022-10-03T01:38:58.815Z,3.13
2022-10-03T01:44:24.557Z,2.70
2022-10-03T01:49:47.421Z,2.85
2022-10-03T01:55:04.054Z,2.92
2022-10-03T02:00:14.637Z,3.40
2022-10-03T02:05:48.287Z,2.60
2022-10-03T02:11:08.504Z,3.03
2022-10-03T02:16:52.827Z,3.22
2022-10-03T02:21:56.902Z,4.22
2022-10-03T02:27:31.745Z,2.72
2022-10-03T02:32:58.472Z,2.50
2022-10-03T02:38:17.652Z,2.92
2022-10-03T02:43:50.244Z,3.72
2022-10-03T02:49:13.378Z,4.65
2022-10-03T02:54:33.298Z,3.65
2022-10-03T03:00:07.211Z,3.60
2022-10-03T03:05:37.171Z,4.38
2022-10-03T03:10:52.487Z,3.78
2022-10-03T03:16:18.447Z,4.82
2022-10-03T03:21:41.933Z,4.72
2022-10-03T03:26:50.811Z,5.32
2022-10-03T03:32:11.028Z,5.93
2022-10-03T03:37:44.724Z,5.35
2022-10-03T03:43:08.803Z,5.97
2022-10-03T03:48:28.784Z,4.15
2022-10-03T03:53:54.060Z,5.32
2022-10-03T03:59:32.625Z,3.85
2022-10-03T04:04:52.125Z,4.13
2022-10-03T04:10:26.274Z,3.88
2022-10-03T04:15:36.083Z,4.30
2022-10-03T04:21:09.833Z,5.07
2022-10-03T04:26:31.259Z,4.82
2022-10-03T04:31:44.220Z,4.25
2022-10-03T04:36:55.152Z,5.30
2022-10-03T04:42:08.210Z,4.03
2022-10-03T04:47:19.129Z,5.25
2022-10-03T04:52:47.720Z,4.85
2022-10-03T04:58:06.811Z,5.97
2022-10-03T05:03:28.612Z,5.47
2022-10-03T05:08:54.690Z,5.68
2022-10-03T05:14:12.734Z,5.57
2022-10-03T05:19:29.555Z,4.95
2022-10-03T05:24:49.579Z,4.45
2022-10-03T05:30:06.969Z,5.10
2022-10-03T05:35:31.334Z,4.30
2022-10-03T05:40:37.198Z,5.18
2022-10-03T05:45:48.890Z,3.67
2022-10-03T05:51:15.598Z,4.25
2022-10-03T05:56:44.911Z,3.65
2022-10-03T06:02:35.894Z,4.22
2022-10-03T06:07:56.276Z,4.40
2022-10-03T06:13:04.063Z,4.32
2022-10-03T06:18:26.895Z,4.18
2022-10-03T06:23:47.019Z,4.22
2022-10-03T06:29:46.514Z,4.45
2022-10-03T06:35:19.069Z,4.40
2022-10-03T06:40:32.602Z,4.30
2022-10-03T06:45:50.127Z,4.25
2022-10-03T06:51:46.220Z,4.35
2022-10-03T06:57:13.042Z,4.28
2022-10-03T07:02:20.793Z,4.88
2022-10-03T07:07:40.924Z,4.47
2022-10-03T07:13:11.676Z,5.30
2022-10-03T07:18:27.683Z,5.15
2022-10-03T07:24:10.216Z,4.38
2022-10-03T07:29:14.635Z,4.10
2022-10-03T07:34:31.041Z,3.42
2022-10-03T07:40:11.352Z,4.05
2022-10-03T07:45:34.729Z,3.55
2022-10-03T07:51:15.131Z,3.13
2022-10-03T07:56:32.407Z,3.10
2022-10-03T08:01:42.767Z,2.78
2022-10-03T08:06:56.063Z,2.58
2022-10-03T08:12:12.941Z,3.53
2022-10-03T08:17:57.280Z,2.83
2022-10-03T08:23:34.620Z,3.13
2022-10-03T08:28:58.121Z,3.78
2022-10-03T08:34:38.565Z,3.33
2022-10-03T08:39:49.345Z,2.85
2022-10-03T08:45:05.876Z,3.17
2022-10-03T08:50:25.600Z,2.97
2022-10-03T08:55:45.639Z,3.75
2022-10-03T09:01:23.602Z,3.42
2022-10-03T09:07:17.128Z,3.05
2022-10-03T09:12:51.070Z,3.25
2022-10-03T09:18:11.022Z,3.13
2022-10-03T09:23:38.902Z,2.78
2022-10-03T09:28:48.057Z,2.75
2022-10-03T09:33:55.804Z,2.95
2022-10-03T09:39:26.564Z,3.47
2022-10-03T09:44:46.358Z,2.78
2022-10-03T09:50:28.619Z,2.45
2022-10-03T09:55:36.480Z,3.25
2022-10-03T10:01:10.916Z,2.70
2022-10-03T10:06:15.446Z,2.28
2022-10-03T10:11:41.703Z,3.08
2022-10-03T10:17:20.191Z,2.38
2022-10-03T10:22:49.966Z,2.28
2022-10-03T10:28:06.615Z,2.63
2022-10-03T10:33:30.042Z,3.10
2022-10-03T10:38:56.853Z,1.58
2022-10-03T10:44:29.541Z,2.85
2022-10-03T10:49:46.101Z,2.08
2022-10-03T10:55:15.389Z,1.73
2022-10-03T11:00:37.541Z,2.17
2022-10-03T11:05:46.990Z,2.47
2022-10-03T11:11:01.082Z,2.67
2022-10-03T11:16:08.473Z,3.65
2022-10-03T11:21:52.761Z,2.63
2022-10-03T11:27:00.155Z,2.30
2022-10-03T11:32:13.801Z,2.95
2022-10-03T11:37:38.770Z,1.92
2022-10-03T11:43:00.635Z,2.30
2022-10-03T11:48:33.368Z,2.85
2022-10-03T11:54:03.626Z,2.15
2022-10-03T11:59:32.880Z,2.30
2022-10-03T12:04:45.629Z,2.15
2022-10-03T12:10:30.454Z,2.30
2022-10-03T12:15:45.687Z,2.50
2022-10-03T12:21:08.241Z,2.33
2022-10-03T12:26:17.372Z,2.00
2022-10-03T12:31:36.176Z,2.55
2022-10-03T12:37:02.892Z,2.10
2022-10-03T12:42:24.419Z,1.85
2022-10-03T12:47:56.333Z,1.58
2022-10-03T12:53:16.316Z,2.05
2022-10-03T12:58:39.049Z,2.30
2022-10-03T13:03:50.737Z,2.40
2022-10-03T13:09:10.752Z,2.72
2022-10-03T13:14:33.882Z,2.45
2022-10-03T13:19:58.171Z,2.10
2022-10-03T13:25:14.790Z,2.50
2022-10-03T13:30:31.359Z,1.77
2022-10-03T13:35:58.861Z,2.42
2022-10-03T13:41:06.484Z,2.20
2022-10-03T13:46:16.735Z,1.92
2022-10-03T13:51:34.665Z,2.17
2022-10-03T13:57:05.491Z,1.83
2022-10-03T14:02:08.463Z,1.70
2022-10-03T14:07:16.167Z,3.50
2022-10-03T14:13:12.704Z,2.28
2022-10-03T14:18:39.035Z,2.92
2022-10-03T14:23:59.860Z,1.40
2022-10-03T14:29:14.746Z,2.05
2022-10-03T14:34:19.382Z,2.63
2022-10-03T14:39:46.578Z,2.88
2022-10-03T14:44:57.294Z,2.03
2022-10-03T14:50:00.317Z,2.42
2022-10-03T14:55:15.280Z,2.90
2022-10-03T15:00:27.520Z,2.55
2022-10-03T15:05:35.329Z,2.20
2022-10-03T15:10:37.752Z,1.20
2022-10-03T15:15:42.026Z,1.88
2022-10-03T15:20:46.220Z,1.95
2022-10-03T15:25:53.875Z,1.77
2022-10-03T15:30:58.199Z,1.88
2022-10-03T15:36:25.642Z,1.52
2022-10-03T15:41:50.334Z,2.53
2022-10-03T15:46:56.931Z,1.65
2022-10-03T15:52:09.684Z,2.25
2022-10-03T15:57:33.243Z,2.15
2022-10-03T16:02:43.261Z,2.10
2022-10-03T16:08:09.316Z,2.15
2022-10-03T16:13:16.744Z,1.98
2022-10-03T16:18:18.386Z,2.05
2022-10-03T16:23:24.572Z,1.83
2022-10-03T16:28:30.654Z,1.98
2022-10-03T16:33:40.783Z,2.33
2022-10-03T16:38:52.493Z,2.70
2022-10-03T16:43:56.710Z,2.20
2022-10-03T16:49:20.613Z,1.67
2022-10-03T16:54:24.072Z,1.73
2022-10-03T16:59:28.605Z,1.90
2022-10-03T17:04:39.530Z,1.80
2022-10-03T17:09:46.500Z,1.63
2022-10-03T17:14:48.597Z,3.03
2022-10-03T17:19:55.916Z,1.80
2022-10-03T17:25:04.324Z,2.58
2022-10-03T17:30:22.213Z,2.28
2022-10-03T17:36:05.917Z,1.95
2022-10-03T17:41:23.443Z,2.53
2022-10-03T17:47:05.210Z,2.38
2022-10-03T17:52:14.103Z,2.08
2022-10-03T17:57:20.702Z,2.67
2022-10-03T18:02:31.769Z,2.38
2022-10-03T18:07:35.167Z,2.15
2022-10-03T18:12:40.435Z,2.15
2022-10-03T18:18:15.313Z,2.22
2022-10-03T18:23:49.824Z,2.58
2022-10-03T18:28:57.378Z,2.25
2022-10-03T18:34:09.143Z,1.95
2022-10-03T18:39:22.681Z,1.98
2022-10-03T18:44:28.327Z,2.72
2022-10-03T18:49:34.564Z,2.30
2022-10-03T18:54:54.501Z,2.33
2022-10-03T19:00:03.936Z,1.83
2022-10-03T19:05:26.774Z,1.55
2022-10-03T19:10:39.649Z,1.52
2022-10-03T19:16:15.101Z,1.45
2022-10-03T19:21:20.140Z,2.17
2022-10-03T19:26:31.253Z,1.40
2022-10-03T19:31:47.129Z,1.45
2022-10-03T19:36:51.713Z,1.48
2022-10-03T19:41:57.187Z,1.38
2022-10-03T19:47:05.485Z,1.23
2022-10-03T19:52:31.405Z,1.40
2022-10-03T19:57:41.764Z,1.50
2022-10-03T20:02:45.148Z,1.90
2022-10-03T20:07:55.953Z,1.40
2022-10-03T20:13:03.580Z,2.20
2022-10-03T20:18:07.149Z,1.92
2022-10-03T20:23:15.328Z,1.63
2022-10-03T20:28:23.484Z,2.05
2022-10-03T20:33:30.110Z,2.40
2022-10-03T20:38:56.531Z,2.30
2022-10-03T20:44:11.101Z,2.17
2022-10-03T20:49:18.657Z,3.15
2022-10-03T20:54:23.430Z,2.47
2022-10-03T20:59:45.431Z,2.63
2022-10-03T21:05:01.628Z,1.88
2022-10-03T21:10:38.609Z,2.40
2022-10-03T21:15:51.122Z,2.58
2022-10-03T21:21:23.645Z,3.08
2022-10-03T21:26:31.060Z,2.10
2022-10-03T21:31:48.278Z,2.38
2022-10-03T21:37:11.245Z,2.85
2022-10-03T21:42:19.015Z,2.35
2022-10-03T21:47:32.527Z,2.30
2022-10-03T21:53:27.776Z,2.28
2022-10-03T21:58:49.904Z,1.98
2022-10-03T22:04:01.636Z,2.35
2022-10-03T22:09:11.388Z,3.13
2022-10-03T22:14:18.768Z,2.38
2022-10-03T22:19:23.233Z,2.50
2022-10-03T22:24:38.893Z,1.95
2022-10-03T22:30:17.542Z,2.25
2022-10-03T22:35:19.202Z,1.90
2022-10-03T22:40:22.034Z,2.40
2022-10-03T22:45:26.367Z,2.40
2022-10-03T22:50:32.750Z,2.40
2022-10-03T22:55:34.476Z,2.30
2022-10-03T23:00:36.393Z,1.85
2022-10-03T23:05:53.330Z,1.52
2022-10-03T23:10:59.995Z,1.92
2022-10-03T23:16:25.641Z,2.10
2022-10-03T23:21:27.439Z,2.42
2022-10-03T23:27:06.172Z,1.65
2022-10-03T23:32:09.967Z,1.77
2022-10-03T23:37:11.580Z,1.98
2022-10-03T23:42:25.343Z,2.17
2022-10-03T23:47:32.690Z,1.95
2022-10-03T23:52:46.571Z,2.13
2022-10-03T23:57:48.520Z,2.47
